Terminal Aerodrome Forecast
Issued by NWS

Home | Current Version | Previous Version | Text Only | Print | Product List | Glossary On
Versions: 1 2 3 4 5 6 7 8 9 10 11 12 13 14 15 16 17 18 19 20 21 22 23 24 25 26 27 28 29 30 31 32
286
FTUS45 KBOU 081128
TAFAPA
TAF
KAPA 081128Z 0812/0912 18009KT P6SM SCT150 SCT220
     FM081400 19006KT P6SM SCT220
     FM081500 VRB05KT P6SM SCT220
     FM082100 31008KT P6SM FEW080 SCT220
     FM090100 19008KT P6SM FEW120 SCT220=

USA.gov is the U.S. government's official web portal to all federal, state and local government web resources and services.